sensor_id;sensor_type;location;lat;lon;timestamp;pressure;altitude;pressure_sealevel;temperature;humidity
75594;BME280;64176;49.156;7.810;2023-06-26T00:02:09;99082.50;;;17.67;64.74
75594;BME280;64176;49.156;7.810;2023-06-26T00:04:53;99081.28;;;17.78;64.12
75594;BME280;64176;49.156;7.810;2023-06-26T00:07:37;99067.59;;;17.69;64.20
75594;BME280;64176;49.156;7.810;2023-06-26T00:10:21;99082.44;;;17.68;64.41
75594;BME280;64176;49.156;7.810;2023-06-26T00:13:07;99082.91;;;17.48;64.84
75594;BME280;64176;49.156;7.810;2023-06-26T00:15:51;99085.34;;;17.56;65.18
75594;BME280;64176;49.156;7.810;2023-06-26T00:18:35;99082.97;;;17.45;65.40
75594;BME280;64176;49.156;7.810;2023-06-26T00:21:19;99080.91;;;17.24;66.61
75594;BME280;64176;49.156;7.810;2023-06-26T00:24:04;99071.78;;;17.06;67.21
75594;BME280;64176;49.156;7.810;2023-06-26T00:26:48;99075.66;;;17.26;66.89
75594;BME280;64176;49.156;7.810;2023-06-26T00:29:33;99073.41;;;17.12;66.82
75594;BME280;64176;49.156;7.810;2023-06-26T00:32:19;99083.75;;;17.15;67.06
75594;BME280;64176;49.156;7.810;2023-06-26T00:35:04;99076.47;;;17.28;66.76
75594;BME280;64176;49.156;7.810;2023-06-26T00:37:48;99081.38;;;17.04;67.38
75594;BME280;64176;49.156;7.810;2023-06-26T00:40:33;99077.53;;;17.21;67.17
75594;BME280;64176;49.156;7.810;2023-06-26T00:43:19;99072.22;;;17.24;66.73
75594;BME280;64176;49.156;7.810;2023-06-26T00:46:09;99077.63;;;17.16;66.90
75594;BME280;64176;49.156;7.810;2023-06-26T00:48:54;99071.00;;;17.01;67.71
75594;BME280;64176;49.156;7.810;2023-06-26T00:51:39;99076.31;;;16.98;67.48
75594;BME280;64176;49.156;7.810;2023-06-26T00:54:23;99078.97;;;16.97;67.92
75594;BME280;64176;49.156;7.810;2023-06-26T00:57:08;99069.75;;;16.81;68.13
75594;BME280;64176;49.156;7.810;2023-06-26T00:59:52;99067.78;;;16.90;67.53
75594;BME280;64176;49.156;7.810;2023-06-26T01:02:38;99068.81;;;16.85;67.87
75594;BME280;64176;49.156;7.810;2023-06-26T01:05:23;99068.69;;;16.49;69.19
75594;BME280;64176;49.156;7.810;2023-06-26T01:08:07;99068.34;;;16.67;68.66
75594;BME280;64176;49.156;7.810;2023-06-26T01:10:52;99070.94;;;16.67;68.83
75594;BME280;64176;49.156;7.810;2023-06-26T01:13:37;99069.78;;;16.79;68.49
75594;BME280;64176;49.156;7.810;2023-06-26T01:16:25;99064.94;;;16.62;68.90
75594;BME280;64176;49.156;7.810;2023-06-26T01:19:15;99063.19;;;16.63;69.02
75594;BME280;64176;49.156;7.810;2023-06-26T01:22:18;99070.44;;;16.49;69.63
75594;BME280;64176;49.156;7.810;2023-06-26T01:28:08;99057.22;;;16.15;71.40
75594;BME280;64176;49.156;7.810;2023-06-26T01:30:52;99069.78;;;15.96;71.66
75594;BME280;64176;49.156;7.810;2023-06-26T01:33:36;99063.47;;;16.08;71.47
75594;BME280;64176;49.156;7.810;2023-06-26T01:36:21;99054.94;;;16.41;70.35
75594;BME280;64176;49.156;7.810;2023-06-26T01:39:06;99052.31;;;16.43;69.90
75594;BME280;64176;49.156;7.810;2023-06-26T01:42:01;99047.44;;;16.26;70.06
75594;BME280;64176;49.156;7.810;2023-06-26T01:44:46;99053.22;;;16.40;70.17
75594;BME280;64176;49.156;7.810;2023-06-26T01:47:32;99050.66;;;16.38;69.57
75594;BME280;64176;49.156;7.810;2023-06-26T01:50:24;99041.59;;;16.15;70.78
75594;BME280;64176;49.156;7.810;2023-06-26T01:53:15;99048.47;;;16.19;70.50
75594;BME280;64176;49.156;7.810;2023-06-26T01:56:08;99048.72;;;16.07;70.68
75594;BME280;64176;49.156;7.810;2023-06-26T01:58:57;99043.75;;;15.93;71.32
75594;BME280;64176;49.156;7.810;2023-06-26T02:01:44;99048.25;;;15.86;71.51
75594;BME280;64176;49.156;7.810;2023-06-26T02:04:28;99044.53;;;15.98;71.31
75594;BME280;64176;49.156;7.810;2023-06-26T02:07:11;99046.03;;;16.11;70.65
75594;BME280;64176;49.156;7.810;2023-06-26T02:09:55;99039.28;;;16.01;71.16
75594;BME280;64176;49.156;7.810;2023-06-26T02:12:39;99034.28;;;15.90;71.12
75594;BME280;64176;49.156;7.810;2023-06-26T02:15:23;99045.28;;;16.05;70.78
75594;BME280;64176;49.156;7.810;2023-06-26T02:18:08;99042.66;;;16.05;70.51
75594;BME280;64176;49.156;7.810;2023-06-26T02:20:51;99046.28;;;15.97;71.06
75594;BME280;64176;49.156;7.810;2023-06-26T02:23:35;99033.41;;;15.90;71.20
75594;BME280;64176;49.156;7.810;2023-06-26T02:26:22;99044.97;;;15.77;71.85
75594;BME280;64176;49.156;7.810;2023-06-26T02:29:06;99040.84;;;15.65;72.07
75594;BME280;64176;49.156;7.810;2023-06-26T02:31:50;99046.88;;;15.67;72.02
75594;BME280;64176;49.156;7.810;2023-06-26T02:34:35;99038.94;;;15.73;71.84
75594;BME280;64176;49.156;7.810;2023-06-26T02:37:22;99032.03;;;15.71;71.75
75594;BME280;64176;49.156;7.810;2023-06-26T02:40:06;99041.59;;;15.70;72.03
75594;BME280;64176;49.156;7.810;2023-06-26T02:42:51;99051.22;;;15.67;72.23
75594;BME280;64176;49.156;7.810;2023-06-26T02:45:36;99053.81;;;15.68;72.17
75594;BME280;64176;49.156;7.810;2023-06-26T02:48:21;99047.09;;;15.55;72.68
75594;BME280;64176;49.156;7.810;2023-06-26T02:51:05;99047.97;;;15.52;72.65
75594;BME280;64176;49.156;7.810;2023-06-26T02:53:50;99046.66;;;15.28;73.35
75594;BME280;64176;49.156;7.810;2023-06-26T02:56:34;99052.16;;;15.12;73.89
75594;BME280;64176;49.156;7.810;2023-06-26T02:59:21;99048.66;;;15.13;74.45
75594;BME280;64176;49.156;7.810;2023-06-26T03:02:05;99070.88;;;15.35;73.66
75594;BME280;64176;49.156;7.810;2023-06-26T03:04:55;99070.06;;;15.30;73.49
75594;BME280;64176;49.156;7.810;2023-06-26T03:07:41;99068.19;;;15.37;73.45
75594;BME280;64176;49.156;7.810;2023-06-26T03:10:25;99069.03;;;15.40;72.73
75594;BME280;64176;49.156;7.810;2023-06-26T03:13:10;99072.69;;;15.28;73.43
75594;BME280;64176;49.156;7.810;2023-06-26T03:15:54;99067.63;;;15.21;73.62
75594;BME280;64176;49.156;7.810;2023-06-26T03:18:41;99065.06;;;15.18;73.54
75594;BME280;64176;49.156;7.810;2023-06-26T03:21:25;99073.00;;;15.10;73.65
75594;BME280;64176;49.156;7.810;2023-06-26T03:24:09;99072.50;;;15.39;72.87
75594;BME280;64176;49.156;7.810;2023-06-26T03:26:54;99073.00;;;15.10;74.29
75594;BME280;64176;49.156;7.810;2023-06-26T03:29:39;99072.59;;;15.35;73.53
75594;BME280;64176;49.156;7.810;2023-06-26T03:32:24;99075.13;;;15.38;73.66
75594;BME280;64176;49.156;7.810;2023-06-26T03:35:08;99063.09;;;14.77;75.52
75594;BME280;64176;49.156;7.810;2023-06-26T03:37:53;99068.34;;;14.74;75.80
75594;BME280;64176;49.156;7.810;2023-06-26T03:40:38;99069.00;;;14.88;75.15
75594;BME280;64176;49.156;7.810;2023-06-26T03:43:22;99062.59;;;15.09;74.17
75594;BME280;64176;49.156;7.810;2023-06-26T03:46:19;99059.97;;;15.10;74.41
75594;BME280;64176;49.156;7.810;2023-06-26T03:49:04;99053.06;;;15.08;74.30
75594;BME280;64176;49.156;7.810;2023-06-26T03:51:48;99053.00;;;15.12;74.45
75594;BME280;64176;49.156;7.810;2023-06-26T03:54:32;99051.91;;;15.25;73.95
75594;BME280;64176;49.156;7.810;2023-06-26T03:57:18;99058.16;;;15.15;74.65
75594;BME280;64176;49.156;7.810;2023-06-26T04:00:05;99066.09;;;15.06;75.18
75594;BME280;64176;49.156;7.810;2023-06-26T04:02:59;99068.81;;;15.00;75.57
75594;BME280;64176;49.156;7.810;2023-06-26T04:08:26;99066.91;;;15.11;74.56
75594;BME280;64176;49.156;7.810;2023-06-26T04:11:10;99071.13;;;15.17;74.14
75594;BME280;64176;49.156;7.810;2023-06-26T04:13:54;99069.41;;;15.16;74.29
75594;BME280;64176;49.156;7.810;2023-06-26T04:16:38;99082.56;;;15.08;74.91
75594;BME280;64176;49.156;7.810;2023-06-26T04:19:24;99083.88;;;14.78;76.27
75594;BME280;64176;49.156;7.810;2023-06-26T04:22:08;99079.63;;;14.71;76.38
75594;BME280;64176;49.156;7.810;2023-06-26T04:24:52;99076.41;;;14.55;77.68
75594;BME280;64176;49.156;7.810;2023-06-26T04:27:41;99079.41;;;14.88;76.59
75594;BME280;64176;49.156;7.810;2023-06-26T04:30:25;99075.09;;;14.85;75.93
75594;BME280;64176;49.156;7.810;2023-06-26T04:33:09;99069.94;;;14.82;76.79
75594;BME280;64176;49.156;7.810;2023-06-26T04:35:55;99076.19;;;15.27;75.12
75594;BME280;64176;49.156;7.810;2023-06-26T04:38:43;99072.50;;;15.39;74.93
75594;BME280;64176;49.156;7.810;2023-06-26T04:41:30;99073.47;;;15.35;74.58
75594;BME280;64176;49.156;7.810;2023-06-26T04:44:16;99074.34;;;15.34;74.65
75594;BME280;64176;49.156;7.810;2023-06-26T04:47:00;99068.13;;;15.43;74.06
75594;BME280;64176;49.156;7.810;2023-06-26T04:49:44;99073.91;;;15.60;73.22
75594;BME280;64176;49.156;7.810;2023-06-26T04:52:29;99078.03;;;15.73;73.27
75594;BME280;64176;49.156;7.810;2023-06-26T04:55:13;99070.13;;;15.78;73.47
75594;BME280;64176;49.156;7.810;2023-06-26T04:57:57;99077.13;;;15.74;73.33
75594;BME280;64176;49.156;7.810;2023-06-26T05:00:44;99077.81;;;15.84;73.31
75594;BME280;64176;49.156;7.810;2023-06-26T05:03:28;99063.84;;;15.89;73.14
75594;BME280;64176;49.156;7.810;2023-06-26T05:06:11;99074.78;;;16.07;72.59
75594;BME280;64176;49.156;7.810;2023-06-26T05:08:55;99075.25;;;16.27;71.61
75594;BME280;64176;49.156;7.810;2023-06-26T05:11:39;99069.72;;;16.42;70.77
75594;BME280;64176;49.156;7.810;2023-06-26T05:14:24;99063.22;;;16.60;70.63
75594;BME280;64176;49.156;7.810;2023-06-26T05:17:08;99065.53;;;16.75;69.86
75594;BME280;64176;49.156;7.810;2023-06-26T05:19:54;99066.69;;;16.63;70.53
75594;BME280;64176;49.156;7.810;2023-06-26T05:22:38;99063.78;;;16.76;70.08
75594;BME280;64176;49.156;7.810;2023-06-26T05:25:23;99074.38;;;17.06;69.43
75594;BME280;64176;49.156;7.810;2023-06-26T05:28:08;99071.94;;;17.34;68.48
75594;BME280;64176;49.156;7.810;2023-06-26T05:30:54;99064.28;;;17.62;67.71
75594;BME280;64176;49.156;7.810;2023-06-26T05:33:40;99074.72;;;17.64;66.69
75594;BME280;64176;49.156;7.810;2023-06-26T05:36:28;99062.94;;;17.80;65.87
75594;BME280;64176;49.156;7.810;2023-06-26T05:39:13;99071.66;;;17.80;65.97
75594;BME280;64176;49.156;7.810;2023-06-26T05:41:58;99073.53;;;18.08;65.01
75594;BME280;64176;49.156;7.810;2023-06-26T05:44:42;99066.56;;;18.38;64.80
75594;BME280;64176;49.156;7.810;2023-06-26T05:47:26;99068.06;;;18.46;63.39
75594;BME280;64176;49.156;7.810;2023-06-26T05:50:11;99066.31;;;18.76;62.72
75594;BME280;64176;49.156;7.810;2023-06-26T05:52:55;99072.91;;;18.60;64.00
75594;BME280;64176;49.156;7.810;2023-06-26T05:55:40;99070.72;;;19.02;62.14
75594;BME280;64176;49.156;7.810;2023-06-26T05:58:26;99074.50;;;19.21;61.88
75594;BME280;64176;49.156;7.810;2023-06-26T06:01:13;99073.09;;;19.64;60.65
75594;BME280;64176;49.156;7.810;2023-06-26T06:03:57;99077.31;;;19.93;59.53
75594;BME280;64176;49.156;7.810;2023-06-26T06:06:41;99073.75;;;19.95;58.82
75594;BME280;64176;49.156;7.810;2023-06-26T06:09:25;99078.72;;;20.26;58.39
75594;BME280;64176;49.156;7.810;2023-06-26T06:12:09;99074.34;;;20.27;58.20
75594;BME280;64176;49.156;7.810;2023-06-26T06:14:55;99068.84;;;20.80;57.20
75594;BME280;64176;49.156;7.810;2023-06-26T06:17:39;99071.75;;;21.17;56.42
75594;BME280;64176;49.156;7.810;2023-06-26T06:20:23;99071.88;;;21.14;55.89
75594;BME280;64176;49.156;7.810;2023-06-26T06:23:07;99077.75;;;21.42;55.42
75594;BME280;64176;49.156;7.810;2023-06-26T06:25:51;99075.84;;;21.46;55.04
75594;BME280;64176;49.156;7.810;2023-06-26T06:28:35;99071.25;;;23.95;49.03
75594;BME280;64176;49.156;7.810;2023-06-26T06:31:21;99065.03;;;24.62;47.17
75594;BME280;64176;49.156;7.810;2023-06-26T06:34:07;99064.78;;;25.29;44.88
75594;BME280;64176;49.156;7.810;2023-06-26T06:36:51;99062.66;;;25.66;43.48
75594;BME280;64176;49.156;7.810;2023-06-26T06:39:38;99069.66;;;25.67;43.53
75594;BME280;64176;49.156;7.810;2023-06-26T06:42:22;99064.53;;;26.22;41.46
75594;BME280;64176;49.156;7.810;2023-06-26T06:45:06;99047.81;;;26.50;41.34
75594;BME280;64176;49.156;7.810;2023-06-26T06:47:50;99058.09;;;26.55;42.72
75594;BME280;64176;49.156;7.810;2023-06-26T06:50:37;99061.41;;;26.01;44.19
75594;BME280;64176;49.156;7.810;2023-06-26T06:53:20;99058.28;;;26.23;42.79
75594;BME280;64176;49.156;7.810;2023-06-26T06:56:07;99055.16;;;27.54;40.15
75594;BME280;64176;49.156;7.810;2023-06-26T06:58:51;99051.50;;;27.03;40.42
75594;BME280;64176;49.156;7.810;2023-06-26T07:01:35;99056.13;;;27.53;39.32
75594;BME280;64176;49.156;7.810;2023-06-26T07:04:19;99059.50;;;27.42;39.37
75594;BME280;64176;49.156;7.810;2023-06-26T07:07:03;99054.94;;;27.44;39.67
75594;BME280;64176;49.156;7.810;2023-06-26T07:09:49;99058.22;;;28.00;38.73
75594;BME280;64176;49.156;7.810;2023-06-26T07:12:36;99059.00;;;26.96;40.36
75594;BME280;64176;49.156;7.810;2023-06-26T07:15:20;99066.38;;;27.05;40.62
75594;BME280;64176;49.156;7.810;2023-06-26T07:18:04;99062.25;;;27.80;39.61
75594;BME280;64176;49.156;7.810;2023-06-26T07:20:48;99057.91;;;27.52;40.26
75594;BME280;64176;49.156;7.810;2023-06-26T07:23:32;99061.63;;;27.10;40.80
75594;BME280;64176;49.156;7.810;2023-06-26T07:26:16;99049.72;;;27.70;40.48
75594;BME280;64176;49.156;7.810;2023-06-26T07:29:00;99052.91;;;27.35;41.18
75594;BME280;64176;49.156;7.810;2023-06-26T07:31:47;99058.00;;;27.51;40.98
75594;BME280;64176;49.156;7.810;2023-06-26T07:34:32;99068.06;;;27.06;42.10
75594;BME280;64176;49.156;7.810;2023-06-26T07:37:18;99058.91;;;27.25;42.08
75594;BME280;64176;49.156;7.810;2023-06-26T07:40:02;99067.53;;;26.87;43.25
75594;BME280;64176;49.156;7.810;2023-06-26T07:42:49;99075.34;;;26.62;43.73
75594;BME280;64176;49.156;7.810;2023-06-26T07:45:33;99091.47;;;26.00;45.90
75594;BME280;64176;49.156;7.810;2023-06-26T07:48:17;99102.38;;;25.96;45.33
75594;BME280;64176;49.156;7.810;2023-06-26T07:51:01;99090.16;;;25.93;45.02
75594;BME280;64176;49.156;7.810;2023-06-26T07:53:47;99083.22;;;26.35;44.92
75594;BME280;64176;49.156;7.810;2023-06-26T07:56:31;99100.38;;;25.54;46.29
75594;BME280;64176;49.156;7.810;2023-06-26T07:59:15;99109.28;;;25.53;46.68
75594;BME280;64176;49.156;7.810;2023-06-26T08:01:59;99089.22;;;25.49;46.68
75594;BME280;64176;49.156;7.810;2023-06-26T08:04:43;99113.50;;;26.01;46.25
75594;BME280;64176;49.156;7.810;2023-06-26T08:07:28;99096.75;;;26.44;44.88
75594;BME280;64176;49.156;7.810;2023-06-26T08:10:14;99099.50;;;25.85;46.19
75594;BME280;64176;49.156;7.810;2023-06-26T08:12:58;99111.47;;;26.06;46.63
75594;BME280;64176;49.156;7.810;2023-06-26T08:15:42;99110.00;;;25.41;48.03
75594;BME280;64176;49.156;7.810;2023-06-26T08:18:29;99124.28;;;25.07;48.65
75594;BME280;64176;49.156;7.810;2023-06-26T08:21:13;99122.09;;;24.82;49.10
75594;BME280;64176;49.156;7.810;2023-06-26T08:23:57;99117.03;;;24.94;49.43
75594;BME280;64176;49.156;7.810;2023-06-26T08:26:47;99126.66;;;24.95;49.86
75594;BME280;64176;49.156;7.810;2023-06-26T08:29:33;99108.25;;;25.55;48.54
75594;BME280;64176;49.156;7.810;2023-06-26T08:32:17;99122.13;;;25.74;48.67
75594;BME280;64176;49.156;7.810;2023-06-26T08:35:02;99119.19;;;25.65;48.11
75594;BME280;64176;49.156;7.810;2023-06-26T08:37:46;99119.31;;;25.16;49.90
75594;BME280;64176;49.156;7.810;2023-06-26T08:40:32;99129.03;;;25.00;50.40
75594;BME280;64176;49.156;7.810;2023-06-26T08:43:16;99135.63;;;24.76;51.26
75594;BME280;64176;49.156;7.810;2023-06-26T08:46:01;99136.66;;;25.06;50.95
75594;BME280;64176;49.156;7.810;2023-06-26T08:48:49;99134.19;;;24.70;51.29
75594;BME280;64176;49.156;7.810;2023-06-26T08:51:33;99132.72;;;25.29;50.52
75594;BME280;64176;49.156;7.810;2023-06-26T08:54:26;99141.91;;;25.37;50.12
75594;BME280;64176;49.156;7.810;2023-06-26T08:57:16;99138.03;;;25.74;49.36
75594;BME280;64176;49.156;7.810;2023-06-26T09:00:04;99136.53;;;25.70;49.08
75594;BME280;64176;49.156;7.810;2023-06-26T09:02:49;99131.53;;;26.24;48.08
75594;BME280;64176;49.156;7.810;2023-06-26T09:05:33;99135.06;;;25.65;48.02
75594;BME280;64176;49.156;7.810;2023-06-26T09:08:17;99145.16;;;25.88;47.76
75594;BME280;64176;49.156;7.810;2023-06-26T09:11:01;99128.34;;;25.89;47.04
75594;BME280;64176;49.156;7.810;2023-06-26T09:13:45;99132.56;;;25.78;46.97
75594;BME280;64176;49.156;7.810;2023-06-26T09:16:31;99133.78;;;25.72;46.82
75594;BME280;64176;49.156;7.810;2023-06-26T09:19:18;99138.00;;;25.90;46.32
75594;BME280;64176;49.156;7.810;2023-06-26T09:22:11;99139.34;;;26.11;46.26
75594;BME280;64176;49.156;7.810;2023-06-26T09:24:56;99142.81;;;25.98;46.86
75594;BME280;64176;49.156;7.810;2023-06-26T09:27:43;99137.69;;;26.25;45.96
75594;BME280;64176;49.156;7.810;2023-06-26T09:30:27;99142.13;;;26.24;45.40
75594;BME280;64176;49.156;7.810;2023-06-26T09:33:15;99139.44;;;25.96;45.29
75594;BME280;64176;49.156;7.810;2023-06-26T09:36:05;99131.53;;;26.24;44.93
75594;BME280;64176;49.156;7.810;2023-06-26T09:38:48;99142.41;;;26.20;43.94
75594;BME280;64176;49.156;7.810;2023-06-26T09:41:32;99149.69;;;25.86;45.21
75594;BME280;64176;49.156;7.810;2023-06-26T09:44:16;99140.38;;;26.09;44.71
75594;BME280;64176;49.156;7.810;2023-06-26T09:47:01;99147.81;;;25.88;45.02
75594;BME280;64176;49.156;7.810;2023-06-26T09:49:47;99135.63;;;26.30;44.45
75594;BME280;64176;49.156;7.810;2023-06-26T09:52:35;99145.28;;;26.31;43.93
75594;BME280;64176;49.156;7.810;2023-06-26T09:55:19;99138.28;;;26.30;43.07
75594;BME280;64176;49.156;7.810;2023-06-26T09:58:05;99136.69;;;26.41;42.63
75594;BME280;64176;49.156;7.810;2023-06-26T10:00:49;99144.97;;;26.21;42.99
75594;BME280;64176;49.156;7.810;2023-06-26T10:03:36;99143.41;;;26.33;42.93
75594;BME280;64176;49.156;7.810;2023-06-26T10:06:28;99136.16;;;26.21;41.71
75594;BME280;64176;49.156;7.810;2023-06-26T10:09:14;99142.06;;;25.66;42.68
75594;BME280;64176;49.156;7.810;2023-06-26T10:12:05;99131.88;;;25.74;42.14
75594;BME280;64176;49.156;7.810;2023-06-26T10:14:52;99161.47;;;26.40;41.05
75594;BME280;64176;49.156;7.810;2023-06-26T10:17:39;99161.59;;;26.09;41.79
75594;BME280;64176;49.156;7.810;2023-06-26T10:20:26;99150.25;;;26.21;41.65
75594;BME280;64176;49.156;7.810;2023-06-26T10:23:11;99146.81;;;26.63;40.48
75594;BME280;64176;49.156;7.810;2023-06-26T10:25:58;99150.34;;;26.50;40.42
75594;BME280;64176;49.156;7.810;2023-06-26T10:28:44;99162.19;;;26.72;39.46
75594;BME280;64176;49.156;7.810;2023-06-26T10:31:32;99153.16;;;26.32;39.06
75594;BME280;64176;49.156;7.810;2023-06-26T10:34:16;99158.84;;;26.55;39.34
75594;BME280;64176;49.156;7.810;2023-06-26T10:37:04;99161.59;;;26.53;38.36
75594;BME280;64176;49.156;7.810;2023-06-26T10:39:52;99151.34;;;26.33;38.30
75594;BME280;64176;49.156;7.810;2023-06-26T10:42:39;99177.03;;;26.61;38.28
75594;BME280;64176;49.156;7.810;2023-06-26T10:45:27;99157.00;;;26.27;37.52
75594;BME280;64176;49.156;7.810;2023-06-26T10:48:14;99152.59;;;26.41;37.96
75594;BME280;64176;49.156;7.810;2023-06-26T10:51:13;99154.84;;;26.90;37.38
75594;BME280;64176;49.156;7.810;2023-06-26T10:53:58;99146.44;;;26.83;37.83
75594;BME280;64176;49.156;7.810;2023-06-26T10:59:31;99141.69;;;26.89;37.63
75594;BME280;64176;49.156;7.810;2023-06-26T11:02:18;99144.25;;;27.45;37.84
75594;BME280;64176;49.156;7.810;2023-06-26T11:05:05;99150.59;;;27.57;37.23
75594;BME280;64176;49.156;7.810;2023-06-26T11:08:08;99161.97;;;26.90;37.52
75594;BME280;64176;49.156;7.810;2023-06-26T11:10:59;99161.50;;;26.97;37.00
75594;BME280;64176;49.156;7.810;2023-06-26T11:13:45;99166.25;;;26.92;37.23
75594;BME280;64176;49.156;7.810;2023-06-26T11:16:32;99155.25;;;27.12;36.37
75594;BME280;64176;49.156;7.810;2023-06-26T11:19:17;99163.78;;;27.44;36.03
75594;BME280;64176;49.156;7.810;2023-06-26T11:22:05;99151.81;;;27.10;36.26
75594;BME280;64176;49.156;7.810;2023-06-26T11:24:53;99166.41;;;26.89;36.10
75594;BME280;64176;49.156;7.810;2023-06-26T11:27:43;99177.78;;;26.77;37.36
75594;BME280;64176;49.156;7.810;2023-06-26T11:30:28;99173.06;;;26.82;37.19
75594;BME280;64176;49.156;7.810;2023-06-26T11:33:11;99167.88;;;26.95;36.57
75594;BME280;64176;49.156;7.810;2023-06-26T11:36:08;99178.84;;;27.03;36.62
75594;BME280;64176;49.156;7.810;2023-06-26T11:39:02;99178.34;;;27.10;36.96
75594;BME280;64176;49.156;7.810;2023-06-26T11:41:46;99161.75;;;27.62;36.75
75594;BME280;64176;49.156;7.810;2023-06-26T11:44:30;99184.91;;;27.46;37.07
75594;BME280;64176;49.156;7.810;2023-06-26T11:47:16;99177.69;;;28.02;36.21
75594;BME280;64176;49.156;7.810;2023-06-26T11:50:04;99171.69;;;27.32;36.26
75594;BME280;64176;49.156;7.810;2023-06-26T11:52:55;99185.25;;;27.68;36.25
75594;BME280;64176;49.156;7.810;2023-06-26T11:55:41;99193.25;;;26.99;36.48
75594;BME280;64176;49.156;7.810;2023-06-26T11:58:26;99173.22;;;27.22;36.43
75594;BME280;64176;49.156;7.810;2023-06-26T12:01:15;99182.59;;;27.54;36.37
75594;BME280;64176;49.156;7.810;2023-06-26T12:04:02;99168.84;;;27.21;37.27
75594;BME280;64176;49.156;7.810;2023-06-26T12:06:49;99194.78;;;27.58;36.83
75594;BME280;64176;49.156;7.810;2023-06-26T12:09:42;99200.34;;;27.12;36.41
75594;BME280;64176;49.156;7.810;2023-06-26T12:12:27;99194.00;;;26.72;37.54
75594;BME280;64176;49.156;7.810;2023-06-26T12:15:15;99189.31;;;27.33;37.34
75594;BME280;64176;49.156;7.810;2023-06-26T12:17:59;99183.94;;;27.88;35.83
75594;BME280;64176;49.156;7.810;2023-06-26T12:20:43;99194.09;;;26.99;36.91
75594;BME280;64176;49.156;7.810;2023-06-26T12:23:39;99186.72;;;27.04;36.66
75594;BME280;64176;49.156;7.810;2023-06-26T12:26:23;99177.38;;;27.67;36.27
75594;BME280;64176;49.156;7.810;2023-06-26T12:29:10;99182.88;;;27.37;37.10
75594;BME280;64176;49.156;7.810;2023-06-26T12:31:57;99191.34;;;27.01;36.70
75594;BME280;64176;49.156;7.810;2023-06-26T12:34:41;99179.88;;;27.56;36.13
75594;BME280;64176;49.156;7.810;2023-06-26T12:37:27;99190.34;;;27.30;36.49
75594;BME280;64176;49.156;7.810;2023-06-26T12:40:19;99172.97;;;27.80;36.25
75594;BME280;64176;49.156;7.810;2023-06-26T12:43:11;99174.16;;;27.88;35.80
75594;BME280;64176;49.156;7.810;2023-06-26T12:45:55;99185.34;;;27.94;35.24
75594;BME280;64176;49.156;7.810;2023-06-26T12:48:43;99172.41;;;27.75;35.75
75594;BME280;64176;49.156;7.810;2023-06-26T12:51:31;99191.16;;;27.86;34.99
75594;BME280;64176;49.156;7.810;2023-06-26T12:54:15;99188.22;;;27.49;34.15
75594;BME280;64176;49.156;7.810;2023-06-26T12:56:59;99193.47;;;27.78;34.55
75594;BME280;64176;49.156;7.810;2023-06-26T12:59:43;99195.81;;;27.56;34.25
75594;BME280;64176;49.156;7.810;2023-06-26T13:02:27;99178.06;;;27.15;34.39
75594;BME280;64176;49.156;7.810;2023-06-26T13:05:14;99181.50;;;27.58;34.20
75594;BME280;64176;49.156;7.810;2023-06-26T13:07:58;99181.56;;;27.71;33.18
75594;BME280;64176;49.156;7.810;2023-06-26T13:10:44;99187.00;;;27.55;32.03
75594;BME280;64176;49.156;7.810;2023-06-26T13:13:29;99185.69;;;27.48;32.05
75594;BME280;64176;49.156;7.810;2023-06-26T13:16:17;99166.75;;;27.94;31.09
75594;BME280;64176;49.156;7.810;2023-06-26T13:19:02;99180.66;;;27.43;31.92
75594;BME280;64176;49.156;7.810;2023-06-26T13:21:46;99195.41;;;27.62;30.21
75594;BME280;64176;49.156;7.810;2023-06-26T13:24:30;99182.53;;;27.14;29.06
75594;BME280;64176;49.156;7.810;2023-06-26T13:27:17;99189.63;;;27.14;28.22
75594;BME280;64176;49.156;7.810;2023-06-26T13:30:03;99197.03;;;27.64;28.58
75594;BME280;64176;49.156;7.810;2023-06-26T13:32:47;99197.91;;;27.50;28.47
75594;BME280;64176;49.156;7.810;2023-06-26T13:35:31;99199.38;;;27.28;27.69
75594;BME280;64176;49.156;7.810;2023-06-26T13:38:15;99194.06;;;27.69;27.67
75594;BME280;64176;49.156;7.810;2023-06-26T13:41:00;99195.06;;;27.80;26.75
75594;BME280;64176;49.156;7.810;2023-06-26T13:43:44;99206.50;;;27.27;27.71
75594;BME280;64176;49.156;7.810;2023-06-26T13:46:28;99210.16;;;27.39;26.48
75594;BME280;64176;49.156;7.810;2023-06-26T13:49:12;99195.19;;;27.38;25.41
75594;BME280;64176;49.156;7.810;2023-06-26T13:51:56;99205.28;;;27.04;25.56
75594;BME280;64176;49.156;7.810;2023-06-26T13:54:40;99210.72;;;27.30;26.42
75594;BME280;64176;49.156;7.810;2023-06-26T13:57:25;99209.16;;;27.27;25.57
75594;BME280;64176;49.156;7.810;2023-06-26T14:00:12;99207.19;;;27.16;25.74
75594;BME280;64176;49.156;7.810;2023-06-26T14:03:01;99220.44;;;27.16;25.86
75594;BME280;64176;49.156;7.810;2023-06-26T14:05:47;99198.47;;;27.00;25.91
75594;BME280;64176;49.156;7.810;2023-06-26T14:08:31;99216.53;;;27.22;25.50
75594;BME280;64176;49.156;7.810;2023-06-26T14:11:15;99211.03;;;27.25;25.03
75594;BME280;64176;49.156;7.810;2023-06-26T14:14:00;99210.69;;;27.03;25.55
75594;BME280;64176;49.156;7.810;2023-06-26T14:16:43;99215.84;;;27.33;25.63
75594;BME280;64176;49.156;7.810;2023-06-26T14:19:28;99208.25;;;27.55;26.24
75594;BME280;64176;49.156;7.810;2023-06-26T14:22:12;99208.84;;;27.32;26.22
75594;BME280;64176;49.156;7.810;2023-06-26T14:24:58;99205.44;;;26.59;27.16
75594;BME280;64176;49.156;7.810;2023-06-26T14:27:45;99205.81;;;27.24;26.40
75594;BME280;64176;49.156;7.810;2023-06-26T14:30:31;99226.28;;;26.79;26.86
75594;BME280;64176;49.156;7.810;2023-06-26T14:33:15;99210.19;;;26.68;27.41
75594;BME280;64176;49.156;7.810;2023-06-26T14:35:59;99206.00;;;26.64;27.47
75594;BME280;64176;49.156;7.810;2023-06-26T14:38:43;99203.16;;;26.53;27.72
75594;BME280;64176;49.156;7.810;2023-06-26T14:41:27;99210.63;;;26.46;28.03
75594;BME280;64176;49.156;7.810;2023-06-26T14:44:11;99222.38;;;26.26;27.91
75594;BME280;64176;49.156;7.810;2023-06-26T14:46:58;99218.56;;;26.46;28.30